Autaugaville, Alabama
Current Conditions -  °F | °C
As of 11:55 PM on Saturday 22 Nov 2014 (Local Time) from K1A9 Reporting Station
Moderate Rain Moderate Rain  
Wind Chill: 54°   Ceiling: 1400
Heat Index: 54°   Visibility: 7mi
Dew Point: 53°   Wind: 9mph
Humidity: 95%   Direction: 90°E
Pressure: 30.04"   Gusts: 16mph
Location:  32.43°N, 86.65°W
Report Text: K1A9 230555Z AUTO 09008G14KT 7SM RA SCT008 BKN014 OVC032 12/12 A3004 RMK AO2 P0002 60002 T01240116 10151 20124 402050020
Loading
Personal Weather Stations






























Interactive Weather Map New forecast layout! Learn more

10-Day Weather Forecast

Advertisements
Track Severe Weather on mobile